VKG1605 LGKO-ENGM
Flight info
| Callsign | VKG1605 |
|---|---|
| Flight time | N/A |
| Altitude | 34000 |
| Route | LARKI UL609 MES DCT ATFIR DCT LOMOS DCT BUDOP DCT KELEL DCT LUSID DCT SABAK L997 LUNIP |
| Aircraft | A321/M-SDE2E3FGHIJ1RWXYZ/LB2 |
Departure
| Time | 2026-05-08 22:52 |
|---|---|
| Airport | Kos International Airport "Ippokratis" (LGKO) |
Arrival
| Time | N/A |
|---|---|
| Airport | Oslo-Gardermoen International Airport (ENGM) |
| Time | Latitude | Longitude | Altitude | Speed | Heading |
|---|---|---|---|---|---|
| 2026-05-08 22:20 | 36.80053 | 27.08987 | 428 ft | 0 kts | 89° |
| 2026-05-08 22:42 | 36.80053 | 27.08974 | 428 ft | 4 kts | 63° |
| 2026-05-08 22:42 | 36.80042 | 27.08967 | 417 ft | 4 kts | 338° |
| 2026-05-08 22:42 | 36.80037 | 27.08969 | 415 ft | 0 kts | 334° |
| 2026-05-08 22:44 | 36.80048 | 27.08953 | 418 ft | 5 kts | 304° |
| 2026-05-08 22:44 | 36.80066 | 27.08920 | 420 ft | 4 kts | 304° |
| 2026-05-08 22:44 | 36.80079 | 27.08897 | 421 ft | 3 kts | 307° |
| 2026-05-08 22:45 | 36.80105 | 27.08859 | 421 ft | 10 kts | 317° |
| 2026-05-08 22:45 | 36.80174 | 27.08801 | 425 ft | 13 kts | 328° |
| 2026-05-08 22:45 | 36.80259 | 27.08736 | 423 ft | 17 kts | 328° |
| 2026-05-08 22:45 | 36.80331 | 27.08638 | 428 ft | 13 kts | 280° |
| 2026-05-08 22:46 | 36.80341 | 27.08583 | 424 ft | 4 kts | 283° |
| 2026-05-08 22:46 | 36.80346 | 27.08556 | 428 ft | 0 kts | 283° |
| 2026-05-08 22:48 | 36.80346 | 27.08555 | 428 ft | 1 kts | 283° |
| 2026-05-08 22:48 | 36.80349 | 27.08537 | 419 ft | 3 kts | 283° |
| 2026-05-08 22:48 | 36.80356 | 27.08498 | 425 ft | 6 kts | 281° |
| 2026-05-08 22:49 | 36.80355 | 27.08426 | 428 ft | 9 kts | 237° |
| 2026-05-08 22:49 | 36.80335 | 27.08435 | 420 ft | 0 kts | 148° |
| 2026-05-08 22:51 | 36.80335 | 27.08436 | 420 ft | 2 kts | 148° |
| 2026-05-08 22:51 | 36.80171 | 27.08569 | 421 ft | 66 kts | 146° |
| 2026-05-08 22:51 | 36.79641 | 27.08996 | 420 ft | 126 kts | 148° |
| 2026-05-08 22:51 | 36.78732 | 27.09692 | 430 ft | 175 kts | 147° |
| 2026-05-08 22:52 | 36.77650 | 27.10541 | 913 ft | 180 kts | 148° |
| 2026-05-08 22:52 | 36.76595 | 27.11357 | 1711 ft | 178 kts | 150° |
| 2026-05-08 22:52 | 36.75550 | 27.12174 | 2499 ft | 175 kts | 149° |
| 2026-05-08 22:52 | 36.74651 | 27.13156 | 3129 ft | 172 kts | 128° |
| 2026-05-08 22:53 | 36.74303 | 27.14605 | 3424 ft | 189 kts | 83° |
| 2026-05-08 22:53 | 36.74833 | 27.16200 | 3574 ft | 209 kts | 60° |
| 2026-05-08 22:53 | 36.75609 | 27.17797 | 3805 ft | 221 kts | 60° |
| 2026-05-08 22:53 | 36.76427 | 27.19467 | 4119 ft | 229 kts | 59° |
| 2026-05-08 22:54 | 36.77291 | 27.21201 | 4348 ft | 247 kts | 59° |
| 2026-05-08 22:54 | 36.78248 | 27.23096 | 4573 ft | 268 kts | 58° |
| 2026-05-08 22:54 | 36.78881 | 27.24335 | 4809 ft | 278 kts | 57° |
| 2026-05-08 22:55 | 36.79800 | 27.26117 | 5139 ft | 291 kts | 57° |
| 2026-05-08 22:55 | 36.80928 | 27.28267 | 5566 ft | 303 kts | 53° |
| 2026-05-08 22:55 | 36.82453 | 27.30114 | 6090 ft | 308 kts | 28° |
| 2026-05-08 22:55 | 36.84438 | 27.30934 | 6731 ft | 306 kts | 2° |
| 2026-05-08 22:56 | 36.86513 | 27.30652 | 7390 ft | 302 kts | 338° |
| 2026-05-08 22:56 | 36.88324 | 27.29342 | 8115 ft | 298 kts | 315° |
| 2026-05-08 22:56 | 36.89595 | 27.27359 | 9193 ft | 280 kts | 304° |
| 2026-05-08 22:56 | 36.90686 | 27.25452 | 10458 ft | 258 kts | 304° |
| 2026-05-08 22:57 | 36.91724 | 27.23663 | 11129 ft | 262 kts | 304° |
| 2026-05-08 22:57 | 36.92738 | 27.21915 | 11262 ft | 280 kts | 304° |
| 2026-05-08 22:57 | 36.93430 | 27.20719 | 11474 ft | 286 kts | 304° |
| 2026-05-08 22:57 | 36.94582 | 27.18680 | 12004 ft | 290 kts | 299° |
| 2026-05-08 22:58 | 36.95273 | 27.16348 | 12551 ft | 291 kts | 279° |
| 2026-05-08 22:58 | 36.95603 | 27.13835 | 13200 ft | 293 kts | 279° |
| 2026-05-08 22:58 | 36.95919 | 27.11365 | 13810 ft | 296 kts | 279° |
| 2026-05-08 22:58 | 36.96254 | 27.08765 | 14361 ft | 298 kts | 279° |
| 2026-05-08 22:59 | 36.96799 | 27.06236 | 14881 ft | 301 kts | 295° |
| 2026-05-08 22:59 | 36.98053 | 27.04110 | 15392 ft | 308 kts | 316° |
| 2026-05-08 22:59 | 36.99911 | 27.02748 | 15933 ft | 317 kts | 334° |
| 2026-05-08 22:59 | 37.01991 | 27.01759 | 16461 ft | 320 kts | 335° |
| 2026-05-08 23:00 | 37.04119 | 27.00763 | 16976 ft | 324 kts | 335° |
| 2026-05-08 23:00 | 37.06237 | 26.99775 | 17484 ft | 326 kts | 334° |
| 2026-05-08 23:00 | 37.08347 | 26.98788 | 17985 ft | 329 kts | 334° |
| 2026-05-08 23:00 | 37.10522 | 26.97767 | 18486 ft | 331 kts | 334° |
| 2026-05-08 23:01 | 37.12656 | 26.96760 | 18914 ft | 333 kts | 334° |
| 2026-05-08 23:01 | 37.14852 | 26.95721 | 19354 ft | 335 kts | 334° |
| 2026-05-08 23:01 | 37.17053 | 26.94678 | 19803 ft | 337 kts | 334° |
| 2026-05-08 23:01 | 37.19262 | 26.93632 | 20249 ft | 339 kts | 334° |
| 2026-05-08 23:02 | 37.21448 | 26.92597 | 20688 ft | 340 kts | 333° |
| 2026-05-08 23:02 | 37.22947 | 26.91890 | 21000 ft | 342 kts | 333° |
| 2026-05-08 23:02 | 37.25321 | 26.90768 | 21471 ft | 343 kts | 333° |
| 2026-05-08 23:02 | 37.27547 | 26.89715 | 21924 ft | 345 kts | 333° |
| 2026-05-08 23:03 | 37.29800 | 26.88647 | 22384 ft | 347 kts | 333° |
| 2026-05-08 23:03 | 37.32062 | 26.87573 | 22824 ft | 348 kts | 333° |
| 2026-05-08 23:03 | 37.34331 | 26.86493 | 23276 ft | 350 kts | 332° |
| 2026-05-08 23:03 | 37.36611 | 26.85406 | 23716 ft | 350 kts | 332° |
| 2026-05-08 23:04 | 37.38847 | 26.84232 | 24068 ft | 347 kts | 326° |
| 2026-05-08 23:04 | 37.40918 | 26.82667 | 24421 ft | 342 kts | 318° |
| 2026-05-08 23:04 | 37.41387 | 26.82228 | 24517 ft | 341 kts | 316° |
| 2026-05-08 23:04 | 37.42666 | 26.80873 | 24745 ft | 340 kts | 313° |
| 2026-05-08 23:05 | 37.43273 | 26.80213 | 24860 ft | 341 kts | 314° |
| 2026-05-08 23:05 | 37.45052 | 26.78287 | 25197 ft | 342 kts | 314° |
| 2026-05-08 23:05 | 37.46871 | 26.76322 | 25526 ft | 343 kts | 314° |
| 2026-05-08 23:05 | 37.48485 | 26.74578 | 25816 ft | 344 kts | 314° |
| 2026-05-08 23:06 | 37.49845 | 26.73107 | 26048 ft | 345 kts | 314° |
| 2026-05-08 23:06 | 37.51671 | 26.71130 | 26372 ft | 346 kts | 313° |
| 2026-05-08 23:06 | 37.53505 | 26.69145 | 26694 ft | 348 kts | 313° |
| 2026-05-08 23:07 | 37.54199 | 26.68395 | 26814 ft | 348 kts | 314° |
| 2026-05-08 23:07 | 37.55761 | 26.66704 | 27063 ft | 349 kts | 313° |
| 2026-05-08 23:07 | 37.56996 | 26.65366 | 27294 ft | 350 kts | 313° |
| 2026-05-08 23:07 | 37.57638 | 26.64670 | 27386 ft | 350 kts | 313° |
| 2026-05-08 23:08 | 37.59491 | 26.62659 | 27688 ft | 351 kts | 313° |
| 2026-05-08 23:08 | 37.60842 | 26.61190 | 27909 ft | 352 kts | 313° |
| 2026-05-08 23:08 | 37.61157 | 26.60848 | 27960 ft | 353 kts | 313° |
| 2026-05-08 23:08 | 37.63035 | 26.58811 | 28258 ft | 354 kts | 313° |
| 2026-05-08 23:09 | 37.64457 | 26.57267 | 28463 ft | 355 kts | 313° |
| 2026-05-08 23:09 | 37.66356 | 26.55204 | 28783 ft | 356 kts | 313° |
| 2026-05-08 23:09 | 37.68248 | 26.53152 | 29076 ft | 357 kts | 313° |
| 2026-05-08 23:10 | 37.70129 | 26.51115 | 29318 ft | 358 kts | 313° |
| 2026-05-08 23:10 | 37.72011 | 26.49074 | 29591 ft | 359 kts | 313° |
| 2026-05-08 23:10 | 37.73915 | 26.47007 | 29951 ft | 359 kts | 313° |
| 2026-05-08 23:10 | 37.75793 | 26.44966 | 30281 ft | 357 kts | 313° |
| 2026-05-08 23:11 | 37.77682 | 26.42908 | 30570 ft | 357 kts | 313° |
| 2026-05-08 23:11 | 37.79581 | 26.40839 | 30850 ft | 356 kts | 313° |
| 2026-05-08 23:11 | 37.81467 | 26.38784 | 31119 ft | 355 kts | 313° |
| 2026-05-08 23:11 | 37.83335 | 26.36748 | 31429 ft | 354 kts | 313° |
| 2026-05-08 23:12 | 37.85194 | 26.34718 | 31722 ft | 352 kts | 313° |
| 2026-05-08 23:12 | 37.87021 | 26.32723 | 31988 ft | 351 kts | 313° |
| 2026-05-08 23:12 | 37.88870 | 26.30700 | 32240 ft | 351 kts | 312° |
| 2026-05-08 23:12 | 37.90721 | 26.28668 | 32489 ft | 350 kts | 312° |
| 2026-05-08 23:13 | 37.92561 | 26.26646 | 32723 ft | 349 kts | 312° |
| 2026-05-08 23:13 | 37.94402 | 26.24624 | 32967 ft | 348 kts | 313° |
| 2026-05-08 23:13 | 37.96219 | 26.22627 | 33214 ft | 347 kts | 313° |
| 2026-05-08 23:13 | 37.98042 | 26.20624 | 33424 ft | 347 kts | 313° |
| 2026-05-08 23:14 | 37.99877 | 26.18604 | 33586 ft | 348 kts | 313° |
| 2026-05-08 23:14 | 38.01091 | 26.17264 | 33690 ft | 349 kts | 312° |
| 2026-05-08 23:14 | 38.03545 | 26.14554 | 33900 ft | 350 kts | 313° |
| 2026-05-08 23:14 | 38.05387 | 26.12522 | 34064 ft | 351 kts | 313° |
| 2026-05-08 23:15 | 38.08464 | 26.09127 | 34141 ft | 353 kts | 313° |
| 2026-05-08 23:15 | 38.12182 | 26.05010 | 34177 ft | 353 kts | 312° |
| 2026-05-08 23:16 | 38.15885 | 26.00908 | 34136 ft | 350 kts | 312° |
| 2026-05-08 23:16 | 38.19547 | 25.96842 | 34134 ft | 350 kts | 312° |
| 2026-05-08 23:17 | 38.23197 | 25.92791 | 34131 ft | 350 kts | 312° |
| 2026-05-08 23:17 | 38.27247 | 25.89240 | 34128 ft | 361 kts | 325° |
| 2026-05-08 23:18 | 38.31750 | 25.86346 | 34118 ft | 361 kts | 325° |
| 2026-05-08 23:18 | 38.36225 | 25.83468 | 34116 ft | 361 kts | 325° |
| 2026-05-08 23:19 | 38.40713 | 25.80582 | 34133 ft | 361 kts | 325° |
| 2026-05-08 23:19 | 38.45187 | 25.77699 | 34125 ft | 361 kts | 325° |
| 2026-05-08 23:20 | 38.49685 | 25.74794 | 34108 ft | 361 kts | 325° |
| 2026-05-08 23:20 | 38.54164 | 25.71885 | 34106 ft | 361 kts | 324° |
| 2026-05-08 23:21 | 38.58632 | 25.68978 | 34106 ft | 361 kts | 325° |
| 2026-05-08 23:21 | 38.63129 | 25.66057 | 34101 ft | 361 kts | 325° |
| 2026-05-08 23:22 | 38.67612 | 25.63149 | 34134 ft | 360 kts | 325° |
| 2026-05-08 23:22 | 38.72055 | 25.60252 | 34124 ft | 359 kts | 325° |
| 2026-05-08 23:23 | 38.76526 | 25.57327 | 34115 ft | 359 kts | 325° |
| 2026-05-08 23:23 | 38.80967 | 25.54416 | 34111 ft | 358 kts | 325° |
| 2026-05-08 23:24 | 38.85419 | 25.51499 | 34101 ft | 358 kts | 325° |
| 2026-05-08 23:24 | 38.89906 | 25.48565 | 34103 ft | 361 kts | 325° |
| 2026-05-08 23:25 | 38.94416 | 25.45609 | 34097 ft | 372 kts | 325° |
| 2026-05-08 23:25 | 38.99136 | 25.42505 | 34092 ft | 383 kts | 326° |
| 2026-05-08 23:26 | 39.03965 | 25.39321 | 34090 ft | 393 kts | 326° |
| 2026-05-08 23:26 | 39.08882 | 25.36071 | 34088 ft | 399 kts | 326° |
| 2026-05-08 23:27 | 39.13826 | 25.32817 | 34109 ft | 400 kts | 326° |
| 2026-05-08 23:27 | 39.18777 | 25.29551 | 34090 ft | 399 kts | 327° |
| 2026-05-08 23:28 | 39.23747 | 25.26258 | 34084 ft | 399 kts | 326° |
| 2026-05-08 23:28 | 39.28680 | 25.22986 | 34079 ft | 399 kts | 327° |
| 2026-05-08 23:29 | 39.33588 | 25.19725 | 34079 ft | 399 kts | 326° |
| 2026-05-08 23:29 | 39.38543 | 25.16422 | 34102 ft | 399 kts | 327° |
| 2026-05-08 23:30 | 39.43471 | 25.13134 | 34078 ft | 399 kts | 327° |
| 2026-05-08 23:30 | 39.48420 | 25.09836 | 34078 ft | 399 kts | 327° |
| 2026-05-08 23:31 | 39.53344 | 25.06543 | 34078 ft | 399 kts | 327° |
| 2026-05-08 23:31 | 39.58341 | 25.03192 | 34077 ft | 399 kts | 327° |
| 2026-05-08 23:32 | 39.63247 | 24.99902 | 34083 ft | 399 kts | 327° |
| 2026-05-08 23:32 | 39.68187 | 24.96580 | 34078 ft | 400 kts | 327° |
| 2026-05-08 23:33 | 39.73159 | 24.93236 | 34075 ft | 400 kts | 327° |
| 2026-05-08 23:33 | 39.78070 | 24.89924 | 34073 ft | 399 kts | 327° |
| 2026-05-08 23:34 | 39.83026 | 24.86569 | 34067 ft | 399 kts | 327° |
| 2026-05-08 23:34 | 39.87949 | 24.83237 | 34088 ft | 400 kts | 327° |
| 2026-05-08 23:35 | 39.92893 | 24.79899 | 34076 ft | 400 kts | 328° |
| 2026-05-08 23:35 | 39.97834 | 24.76552 | 34075 ft | 401 kts | 327° |
| 2026-05-08 23:36 | 40.02778 | 24.73187 | 34073 ft | 401 kts | 327° |
| 2026-05-08 23:36 | 40.07714 | 24.69819 | 34071 ft | 401 kts | 327° |
| 2026-05-08 23:37 | 40.12702 | 24.66414 | 34071 ft | 401 kts | 327° |
| 2026-05-08 23:37 | 40.17648 | 24.63026 | 34074 ft | 401 kts | 327° |
| 2026-05-08 23:38 | 40.22581 | 24.59651 | 34080 ft | 401 kts | 327° |
| 2026-05-08 23:38 | 40.27512 | 24.56277 | 34082 ft | 401 kts | 327° |
| 2026-05-08 23:39 | 40.32471 | 24.52872 | 34077 ft | 400 kts | 327° |
| 2026-05-08 23:39 | 40.37396 | 24.49483 | 34072 ft | 402 kts | 327° |
| 2026-05-08 23:40 | 40.42367 | 24.46058 | 34066 ft | 404 kts | 327° |
| 2026-05-08 23:40 | 40.46529 | 24.43181 | 34069 ft | 405 kts | 327° |
| 2026-05-08 23:41 | 40.51525 | 24.39728 | 34059 ft | 405 kts | 327° |
| 2026-05-08 23:41 | 40.56523 | 24.36269 | 34079 ft | 405 kts | 327° |
| 2026-05-08 23:42 | 40.61498 | 24.32822 | 34077 ft | 405 kts | 328° |
| 2026-05-08 23:42 | 40.66462 | 24.29370 | 34065 ft | 406 kts | 328° |
| 2026-05-08 23:43 | 40.71480 | 24.25885 | 34081 ft | 407 kts | 328° |
| 2026-05-08 23:43 | 40.76500 | 24.22393 | 34078 ft | 408 kts | 328° |
| 2026-05-08 23:44 | 40.81538 | 24.18870 | 34096 ft | 408 kts | 328° |
| 2026-05-08 23:44 | 40.86567 | 24.15347 | 34060 ft | 410 kts | 328° |
| 2026-05-08 23:45 | 40.91625 | 24.11809 | 34066 ft | 412 kts | 328° |
| 2026-05-08 23:45 | 40.96689 | 24.08254 | 34069 ft | 414 kts | 328° |
| 2026-05-08 23:46 | 41.01773 | 24.04684 | 34073 ft | 414 kts | 328° |
| 2026-05-08 23:46 | 41.06856 | 24.01105 | 34085 ft | 415 kts | 328° |
| 2026-05-08 23:47 | 41.11947 | 23.97511 | 34083 ft | 415 kts | 328° |
| 2026-05-08 23:47 | 41.17061 | 23.93890 | 34084 ft | 416 kts | 328° |
| 2026-05-08 23:48 | 41.22179 | 23.90260 | 34089 ft | 416 kts | 328° |
| 2026-05-08 23:48 | 41.27288 | 23.86651 | 34096 ft | 417 kts | 328° |
| 2026-05-08 23:49 | 41.32399 | 23.83023 | 34088 ft | 418 kts | 329° |
| 2026-05-08 23:49 | 41.37540 | 23.79359 | 34090 ft | 419 kts | 330° |
| 2026-05-08 23:50 | 41.43064 | 23.76866 | 34085 ft | 427 kts | 348° |
| 2026-05-08 23:50 | 41.48966 | 23.75656 | 34083 ft | 428 kts | 347° |
| 2026-05-08 23:51 | 41.54840 | 23.74436 | 34086 ft | 429 kts | 348° |
| 2026-05-08 23:51 | 41.60755 | 23.73196 | 34090 ft | 430 kts | 348° |
| 2026-05-08 23:52 | 41.66681 | 23.71956 | 34085 ft | 431 kts | 348° |
| 2026-05-08 23:52 | 41.72622 | 23.70718 | 34095 ft | 432 kts | 348° |
| 2026-05-08 23:53 | 41.78564 | 23.69466 | 34094 ft | 433 kts | 348° |
| 2026-05-08 23:53 | 41.84526 | 23.68209 | 34091 ft | 434 kts | 348° |
| 2026-05-08 23:54 | 41.90484 | 23.66956 | 34096 ft | 434 kts | 348° |
| 2026-05-08 23:55 | 41.99509 | 23.65060 | 34083 ft | 435 kts | 349° |
| 2026-05-08 23:55 | 42.05448 | 23.63796 | 34079 ft | 436 kts | 348° |
| 2026-05-08 23:56 | 42.11425 | 23.62529 | 34089 ft | 436 kts | 349° |
| 2026-05-08 23:56 | 42.17434 | 23.61260 | 34086 ft | 436 kts | 349° |
| 2026-05-08 23:57 | 42.23435 | 23.59976 | 34085 ft | 437 kts | 349° |
| 2026-05-08 23:57 | 42.29444 | 23.58695 | 34084 ft | 437 kts | 349° |
| 2026-05-08 23:58 | 42.35441 | 23.57417 | 34095 ft | 437 kts | 349° |
| 2026-05-08 23:58 | 42.41453 | 23.56133 | 34087 ft | 437 kts | 349° |
| 2026-05-08 23:59 | 42.47513 | 23.54838 | 34088 ft | 437 kts | 349° |
| 2026-05-08 23:59 | 42.53488 | 23.53558 | 34084 ft | 437 kts | 349° |
| 2026-05-09 00:00 | 42.59533 | 23.52254 | 34078 ft | 437 kts | 349° |
| 2026-05-09 00:00 | 42.65546 | 23.50952 | 34074 ft | 438 kts | 349° |
| 2026-05-09 00:01 | 42.71576 | 23.49646 | 34069 ft | 440 kts | 349° |
| 2026-05-09 00:01 | 42.77481 | 23.48363 | 34060 ft | 441 kts | 349° |
| 2026-05-09 00:02 | 42.83587 | 23.47046 | 34057 ft | 442 kts | 349° |
| 2026-05-09 00:02 | 42.89654 | 23.45733 | 34062 ft | 442 kts | 349° |
| 2026-05-09 00:03 | 42.95715 | 23.44409 | 34062 ft | 443 kts | 349° |
| 2026-05-09 00:03 | 43.01803 | 23.43078 | 34060 ft | 443 kts | 349° |
| 2026-05-09 00:04 | 43.07912 | 23.41743 | 34047 ft | 444 kts | 349° |
| 2026-05-09 00:04 | 43.14046 | 23.40394 | 34052 ft | 444 kts | 349° |
| 2026-05-09 00:05 | 43.20147 | 23.39050 | 34041 ft | 444 kts | 349° |
| 2026-05-09 00:05 | 43.26261 | 23.37707 | 34034 ft | 445 kts | 349° |
| 2026-05-09 00:06 | 43.32339 | 23.36366 | 34038 ft | 445 kts | 349° |
| 2026-05-09 00:06 | 43.38472 | 23.35011 | 34032 ft | 445 kts | 349° |
| 2026-05-09 00:07 | 43.44614 | 23.33651 | 34026 ft | 445 kts | 349° |
| 2026-05-09 00:07 | 43.50743 | 23.32295 | 34020 ft | 446 kts | 349° |
| 2026-05-09 00:08 | 43.56887 | 23.30936 | 34014 ft | 446 kts | 349° |
| 2026-05-09 00:08 | 43.62987 | 23.29572 | 34014 ft | 446 kts | 349° |
| 2026-05-09 00:09 | 43.69125 | 23.28196 | 34008 ft | 447 kts | 349° |
| 2026-05-09 00:09 | 43.75270 | 23.26822 | 34014 ft | 447 kts | 349° |
| 2026-05-09 00:10 | 43.81465 | 23.25414 | 34013 ft | 447 kts | 347° |
| 2026-05-09 00:10 | 43.87301 | 23.22713 | 34005 ft | 445 kts | 336° |
| 2026-05-09 00:11 | 43.93030 | 23.19372 | 34003 ft | 445 kts | 336° |
| 2026-05-09 00:11 | 43.98724 | 23.16045 | 34002 ft | 445 kts | 336° |
| 2026-05-09 00:12 | 44.04446 | 23.12700 | 34008 ft | 445 kts | 336° |
| 2026-05-09 00:12 | 44.10085 | 23.09388 | 34007 ft | 445 kts | 336° |
| 2026-05-09 00:13 | 44.15805 | 23.06029 | 34007 ft | 445 kts | 336° |
| 2026-05-09 00:13 | 44.20570 | 23.03217 | 33999 ft | 445 kts | 336° |
| 2026-05-09 00:14 | 44.26253 | 22.99861 | 33998 ft | 446 kts | 336° |
| 2026-05-09 00:14 | 44.31989 | 22.96472 | 34010 ft | 446 kts | 335° |
| 2026-05-09 00:15 | 44.37695 | 22.93082 | 34009 ft | 446 kts | 335° |
| 2026-05-09 00:15 | 44.43392 | 22.89691 | 34005 ft | 446 kts | 335° |
| 2026-05-09 00:16 | 44.49106 | 22.86291 | 34010 ft | 446 kts | 335° |
| 2026-05-09 00:16 | 44.54830 | 22.82874 | 34004 ft | 446 kts | 335° |
| 2026-05-09 00:17 | 44.60522 | 22.79466 | 34006 ft | 446 kts | 335° |
| 2026-05-09 00:17 | 44.66235 | 22.76046 | 34013 ft | 446 kts | 335° |
| 2026-05-09 00:18 | 44.71998 | 22.72591 | 34003 ft | 446 kts | 335° |
| 2026-05-09 00:18 | 44.77666 | 22.69179 | 34009 ft | 446 kts | 335° |
| 2026-05-09 00:19 | 44.83372 | 22.65742 | 34010 ft | 446 kts | 335° |
| 2026-05-09 00:19 | 44.89114 | 22.62266 | 34025 ft | 446 kts | 335° |
| 2026-05-09 00:20 | 44.94822 | 22.58798 | 34021 ft | 447 kts | 335° |
| 2026-05-09 00:20 | 45.00485 | 22.55364 | 34025 ft | 447 kts | 335° |
| 2026-05-09 00:21 | 45.06214 | 22.51890 | 34033 ft | 447 kts | 335° |
| 2026-05-09 00:21 | 45.11928 | 22.48414 | 34035 ft | 447 kts | 335° |
| 2026-05-09 00:22 | 45.17640 | 22.44917 | 34050 ft | 448 kts | 334° |
| 2026-05-09 00:22 | 45.23364 | 22.41402 | 34049 ft | 448 kts | 334° |
| 2026-05-09 00:23 | 45.29075 | 22.37891 | 34048 ft | 448 kts | 334° |
| 2026-05-09 00:23 | 45.34839 | 22.34346 | 34051 ft | 448 kts | 334° |
| 2026-05-09 00:24 | 45.40552 | 22.30833 | 34050 ft | 448 kts | 334° |
| 2026-05-09 00:24 | 45.46227 | 22.27341 | 34051 ft | 448 kts | 334° |
| 2026-05-09 00:25 | 45.51958 | 22.23786 | 34043 ft | 448 kts | 334° |
| 2026-05-09 00:25 | 45.57673 | 22.20238 | 34039 ft | 449 kts | 334° |
| 2026-05-09 00:26 | 45.63410 | 22.16670 | 34038 ft | 449 kts | 334° |
| 2026-05-09 00:26 | 45.69118 | 22.13114 | 34034 ft | 449 kts | 334° |
| 2026-05-09 00:27 | 45.74862 | 22.09526 | 34052 ft | 449 kts | 333° |
| 2026-05-09 00:27 | 45.80588 | 22.05935 | 34037 ft | 449 kts | 333° |
| 2026-05-09 00:28 | 45.86315 | 22.02332 | 34038 ft | 450 kts | 333° |
| 2026-05-09 00:28 | 45.92097 | 21.98700 | 34046 ft | 450 kts | 333° |
| 2026-05-09 00:29 | 45.97755 | 21.95139 | 34043 ft | 450 kts | 333° |
| 2026-05-09 00:29 | 46.03479 | 21.91519 | 34051 ft | 450 kts | 333° |
| 2026-05-09 00:30 | 46.09203 | 21.87896 | 34055 ft | 451 kts | 333° |
| 2026-05-09 00:30 | 46.14961 | 21.84245 | 34053 ft | 451 kts | 333° |
| 2026-05-09 00:31 | 46.20709 | 21.80591 | 34047 ft | 451 kts | 333° |
| 2026-05-09 00:31 | 46.26459 | 21.76920 | 34048 ft | 452 kts | 333° |
| 2026-05-09 00:32 | 46.32203 | 21.73251 | 34047 ft | 452 kts | 333° |
| 2026-05-09 00:32 | 46.37958 | 21.69554 | 34049 ft | 452 kts | 332° |
| 2026-05-09 00:33 | 46.43711 | 21.65858 | 34036 ft | 453 kts | 332° |
| 2026-05-09 00:33 | 46.49491 | 21.62152 | 34035 ft | 454 kts | 332° |
| 2026-05-09 00:34 | 46.55256 | 21.58432 | 34036 ft | 454 kts | 332° |
| 2026-05-09 00:34 | 46.61043 | 21.54691 | 34050 ft | 454 kts | 332° |
| 2026-05-09 00:35 | 46.66790 | 21.50965 | 34073 ft | 453 kts | 332° |
| 2026-05-09 00:35 | 46.72714 | 21.47794 | 34068 ft | 455 kts | 338° |
| 2026-05-09 00:36 | 46.78733 | 21.44922 | 34064 ft | 454 kts | 338° |
| 2026-05-09 00:36 | 46.84758 | 21.42039 | 34060 ft | 454 kts | 338° |
| 2026-05-09 00:37 | 46.90748 | 21.39155 | 34063 ft | 454 kts | 338° |
| 2026-05-09 00:37 | 46.96731 | 21.36265 | 34062 ft | 454 kts | 338° |
| 2026-05-09 00:38 | 47.02727 | 21.33367 | 34074 ft | 454 kts | 338° |
| 2026-05-09 00:38 | 47.08748 | 21.30458 | 34078 ft | 454 kts | 338° |
| 2026-05-09 00:39 | 47.14759 | 21.27555 | 34068 ft | 454 kts | 338° |
| 2026-05-09 00:39 | 47.20731 | 21.24640 | 34061 ft | 454 kts | 338° |
| 2026-05-09 00:40 | 47.26743 | 21.21701 | 34068 ft | 454 kts | 338° |
| 2026-05-09 00:40 | 47.32712 | 21.18782 | 34089 ft | 454 kts | 338° |
| 2026-05-09 00:41 | 47.41732 | 21.14375 | 34083 ft | 454 kts | 337° |
| 2026-05-09 00:41 | 47.47710 | 21.11437 | 34078 ft | 453 kts | 338° |
| 2026-05-09 00:42 | 47.53721 | 21.08478 | 34073 ft | 453 kts | 337° |
| 2026-05-09 00:42 | 47.59705 | 21.05517 | 34075 ft | 453 kts | 337° |
| 2026-05-09 00:43 | 47.65668 | 21.02560 | 34077 ft | 453 kts | 337° |
| 2026-05-09 00:43 | 47.71612 | 20.99609 | 34072 ft | 453 kts | 337° |
| 2026-05-09 00:44 | 47.77614 | 20.96632 | 34069 ft | 453 kts | 337° |
| 2026-05-09 00:44 | 47.83588 | 20.93655 | 34066 ft | 453 kts | 337° |
| 2026-05-09 00:45 | 47.89539 | 20.90672 | 34065 ft | 453 kts | 337° |
| 2026-05-09 00:45 | 47.95542 | 20.87660 | 34066 ft | 453 kts | 337° |
| 2026-05-09 00:46 | 48.01481 | 20.84676 | 34069 ft | 453 kts | 337° |
| 2026-05-09 00:46 | 48.07487 | 20.81657 | 34078 ft | 454 kts | 336° |
| 2026-05-09 00:47 | 48.13481 | 20.78633 | 34067 ft | 455 kts | 336° |
| 2026-05-09 00:47 | 48.19448 | 20.75611 | 34075 ft | 456 kts | 336° |
| 2026-05-09 00:48 | 48.25435 | 20.72579 | 34075 ft | 456 kts | 336° |
| 2026-05-09 00:48 | 48.31468 | 20.69507 | 34096 ft | 456 kts | 336° |
| 2026-05-09 00:49 | 48.37476 | 20.66450 | 34098 ft | 456 kts | 336° |
| 2026-05-09 00:49 | 48.43465 | 20.63386 | 34105 ft | 456 kts | 336° |
| 2026-05-09 00:50 | 48.49485 | 20.60297 | 34103 ft | 456 kts | 336° |
| 2026-05-09 00:50 | 48.55495 | 20.57207 | 34099 ft | 457 kts | 336° |
| 2026-05-09 00:51 | 48.61521 | 20.54109 | 34121 ft | 456 kts | 335° |
| 2026-05-09 00:51 | 48.67522 | 20.51013 | 34124 ft | 456 kts | 335° |
| 2026-05-09 00:52 | 48.72511 | 20.48434 | 34124 ft | 455 kts | 335° |
| 2026-05-09 00:52 | 48.78496 | 20.45328 | 34149 ft | 455 kts | 335° |
| 2026-05-09 00:53 | 48.84521 | 20.42194 | 34167 ft | 454 kts | 335° |
| 2026-05-09 00:53 | 48.90453 | 20.39101 | 34167 ft | 453 kts | 335° |
| 2026-05-09 00:54 | 48.96404 | 20.35979 | 34153 ft | 452 kts | 335° |
| 2026-05-09 00:54 | 49.02355 | 20.32855 | 34142 ft | 451 kts | 335° |
| 2026-05-09 00:55 | 49.08321 | 20.29724 | 34156 ft | 451 kts | 335° |
| 2026-05-09 00:55 | 49.14248 | 20.26608 | 34170 ft | 450 kts | 334° |
| 2026-05-09 00:56 | 49.20151 | 20.23488 | 34152 ft | 449 kts | 334° |
| 2026-05-09 00:56 | 49.26061 | 20.20369 | 34140 ft | 448 kts | 334° |
| 2026-05-09 00:57 | 49.31920 | 20.17130 | 34139 ft | 443 kts | 328° |
| 2026-05-09 00:57 | 49.37391 | 20.12978 | 34139 ft | 441 kts | 327° |
| 2026-05-09 00:58 | 49.42933 | 20.08770 | 34137 ft | 441 kts | 327° |
| 2026-05-09 00:58 | 49.48444 | 20.04577 | 34142 ft | 442 kts | 327° |
| 2026-05-09 00:59 | 49.53955 | 20.00374 | 34137 ft | 443 kts | 327° |
| 2026-05-09 00:59 | 49.59461 | 19.96166 | 34158 ft | 443 kts | 327° |
| 2026-05-09 01:00 | 49.64983 | 19.91950 | 34162 ft | 443 kts | 327° |
| 2026-05-09 01:00 | 49.70506 | 19.87714 | 34162 ft | 443 kts | 326° |
| 2026-05-09 01:01 | 49.76031 | 19.83449 | 34164 ft | 443 kts | 326° |
| 2026-05-09 01:01 | 49.81546 | 19.79187 | 34171 ft | 443 kts | 326° |
| 2026-05-09 01:02 | 49.87043 | 19.74929 | 34167 ft | 443 kts | 326° |
| 2026-05-09 01:02 | 49.92569 | 19.70636 | 34187 ft | 442 kts | 326° |
| 2026-05-09 01:03 | 49.98063 | 19.66355 | 34186 ft | 442 kts | 326° |
| 2026-05-09 01:03 | 50.03554 | 19.62075 | 34184 ft | 441 kts | 326° |
| 2026-05-09 01:04 | 50.09041 | 19.57787 | 34183 ft | 441 kts | 326° |
| 2026-05-09 01:04 | 50.14495 | 19.53501 | 34185 ft | 441 kts | 326° |
| 2026-05-09 01:05 | 50.19955 | 19.49203 | 34197 ft | 440 kts | 327° |
| 2026-05-09 01:06 | 50.28129 | 19.42753 | 34192 ft | 439 kts | 327° |
| 2026-05-09 01:06 | 50.33579 | 19.38447 | 34185 ft | 439 kts | 327° |
| 2026-05-09 01:07 | 50.39065 | 19.34090 | 34185 ft | 439 kts | 327° |
| 2026-05-09 01:07 | 50.44466 | 19.29787 | 34211 ft | 438 kts | 327° |
| 2026-05-09 01:08 | 50.49942 | 19.25421 | 34201 ft | 437 kts | 327° |
| 2026-05-09 01:08 | 50.55360 | 19.21090 | 34192 ft | 436 kts | 327° |
| 2026-05-09 01:09 | 50.60757 | 19.16763 | 34184 ft | 436 kts | 327° |
| 2026-05-09 01:09 | 50.66163 | 19.12409 | 34196 ft | 435 kts | 327° |
| 2026-05-09 01:10 | 50.71558 | 19.08062 | 34212 ft | 435 kts | 327° |
| 2026-05-09 01:10 | 50.76935 | 19.03728 | 34224 ft | 434 kts | 328° |
| 2026-05-09 01:11 | 50.82309 | 18.99371 | 34209 ft | 433 kts | 328° |
| 2026-05-09 01:11 | 50.87672 | 18.95013 | 34193 ft | 433 kts | 328° |
| 2026-05-09 01:12 | 50.92979 | 18.90683 | 34183 ft | 433 kts | 328° |
| 2026-05-09 01:12 | 50.98329 | 18.86311 | 34180 ft | 434 kts | 328° |
| 2026-05-09 01:13 | 51.03723 | 18.81900 | 34187 ft | 434 kts | 329° |
| 2026-05-09 01:13 | 51.09091 | 18.77488 | 34186 ft | 434 kts | 329° |
| 2026-05-09 01:14 | 51.14452 | 18.73073 | 34182 ft | 434 kts | 329° |
| 2026-05-09 01:14 | 51.19813 | 18.68655 | 34180 ft | 434 kts | 329° |
| 2026-05-09 01:15 | 51.25181 | 18.64222 | 34179 ft | 434 kts | 329° |
| 2026-05-09 01:15 | 51.30524 | 18.59778 | 34199 ft | 434 kts | 329° |
| 2026-05-09 01:16 | 51.35883 | 18.55308 | 34194 ft | 433 kts | 329° |
| 2026-05-09 01:16 | 51.41230 | 18.50861 | 34204 ft | 433 kts | 329° |
| 2026-05-09 01:17 | 51.49231 | 18.44168 | 34197 ft | 432 kts | 329° |
| 2026-05-09 01:17 | 51.54564 | 18.39676 | 34197 ft | 433 kts | 329° |
| 2026-05-09 01:18 | 51.59881 | 18.35191 | 34198 ft | 432 kts | 329° |
| 2026-05-09 01:18 | 51.65206 | 18.30698 | 34213 ft | 432 kts | 329° |
| 2026-05-09 01:19 | 51.70523 | 18.26224 | 34200 ft | 431 kts | 329° |
| 2026-05-09 01:19 | 51.75821 | 18.21737 | 34206 ft | 430 kts | 329° |
| 2026-05-09 01:20 | 51.81139 | 18.17207 | 34205 ft | 430 kts | 329° |
| 2026-05-09 01:20 | 51.86404 | 18.12693 | 34212 ft | 430 kts | 328° |
| 2026-05-09 01:21 | 51.91735 | 18.08141 | 34210 ft | 429 kts | 328° |
| 2026-05-09 01:21 | 51.96971 | 18.03663 | 34210 ft | 428 kts | 328° |
| 2026-05-09 01:22 | 52.02256 | 17.99119 | 34212 ft | 428 kts | 328° |
| 2026-05-09 01:22 | 52.07520 | 17.94577 | 34207 ft | 428 kts | 328° |
| 2026-05-09 01:23 | 52.12777 | 17.90036 | 34211 ft | 428 kts | 328° |
| 2026-05-09 01:23 | 52.18018 | 17.85485 | 34208 ft | 428 kts | 328° |
| 2026-05-09 01:24 | 52.23294 | 17.80897 | 34211 ft | 428 kts | 328° |
| 2026-05-09 01:24 | 52.28527 | 17.76341 | 34209 ft | 427 kts | 328° |
| 2026-05-09 01:25 | 52.33772 | 17.71758 | 34208 ft | 427 kts | 328° |
| 2026-05-09 01:25 | 52.39009 | 17.67164 | 34207 ft | 427 kts | 328° |
| 2026-05-09 01:26 | 52.44249 | 17.62562 | 34225 ft | 427 kts | 328° |
| 2026-05-09 01:26 | 52.49477 | 17.57954 | 34220 ft | 426 kts | 328° |
| 2026-05-09 01:27 | 52.54696 | 17.53341 | 34217 ft | 426 kts | 328° |
| 2026-05-09 01:27 | 52.59918 | 17.48717 | 34215 ft | 426 kts | 328° |
| 2026-05-09 01:28 | 52.64290 | 17.44840 | 34212 ft | 426 kts | 328° |
| 2026-05-09 01:28 | 52.69488 | 17.40216 | 34212 ft | 426 kts | 328° |
| 2026-05-09 01:29 | 52.74702 | 17.35549 | 34227 ft | 426 kts | 328° |
| 2026-05-09 01:29 | 52.79934 | 17.30862 | 34230 ft | 426 kts | 328° |
| 2026-05-09 01:30 | 52.85132 | 17.26200 | 34235 ft | 427 kts | 328° |
| 2026-05-09 01:30 | 52.90348 | 17.21503 | 34227 ft | 426 kts | 328° |
| 2026-05-09 01:31 | 52.95563 | 17.16793 | 34231 ft | 427 kts | 328° |
| 2026-05-09 01:31 | 53.00768 | 17.12080 | 34237 ft | 426 kts | 328° |
| 2026-05-09 01:32 | 53.05965 | 17.07359 | 34221 ft | 426 kts | 328° |
| 2026-05-09 01:32 | 53.11163 | 17.02632 | 34223 ft | 426 kts | 328° |
| 2026-05-09 01:33 | 53.16380 | 16.97865 | 34222 ft | 426 kts | 328° |
| 2026-05-09 01:33 | 53.21571 | 16.93116 | 34227 ft | 426 kts | 328° |
| 2026-05-09 01:34 | 53.26769 | 16.88339 | 34229 ft | 426 kts | 328° |
| 2026-05-09 01:34 | 53.31951 | 16.83563 | 34249 ft | 426 kts | 328° |
| 2026-05-09 01:35 | 53.37141 | 16.78782 | 34242 ft | 426 kts | 328° |
| 2026-05-09 01:35 | 53.42340 | 16.73981 | 34236 ft | 425 kts | 328° |
| 2026-05-09 01:36 | 53.47556 | 16.69141 | 34231 ft | 425 kts | 328° |
| 2026-05-09 01:36 | 53.52689 | 16.64357 | 34233 ft | 425 kts | 328° |
| 2026-05-09 01:37 | 53.57858 | 16.59511 | 34229 ft | 425 kts | 328° |
| 2026-05-09 01:37 | 53.63029 | 16.54666 | 34253 ft | 425 kts | 328° |
| 2026-05-09 01:38 | 53.68239 | 16.49781 | 34249 ft | 425 kts | 328° |
| 2026-05-09 01:38 | 53.73405 | 16.44922 | 34250 ft | 425 kts | 328° |
| 2026-05-09 01:39 | 53.78530 | 16.40088 | 34250 ft | 425 kts | 328° |
| 2026-05-09 01:39 | 53.83689 | 16.35204 | 34244 ft | 425 kts | 328° |
| 2026-05-09 01:40 | 53.88849 | 16.30308 | 34241 ft | 425 kts | 328° |
| 2026-05-09 01:40 | 53.93986 | 16.25420 | 34241 ft | 425 kts | 328° |
| 2026-05-09 01:41 | 53.99163 | 16.20474 | 34244 ft | 425 kts | 328° |
| 2026-05-09 01:41 | 54.04357 | 16.15495 | 34243 ft | 426 kts | 328° |
| 2026-05-09 01:42 | 54.09485 | 16.10572 | 34241 ft | 426 kts | 328° |
| 2026-05-09 01:42 | 54.14684 | 16.05567 | 34247 ft | 426 kts | 328° |
| 2026-05-09 01:43 | 54.19844 | 16.00579 | 34258 ft | 426 kts | 328° |
| 2026-05-09 01:43 | 54.25007 | 15.95568 | 34249 ft | 427 kts | 328° |
| 2026-05-09 01:44 | 54.30156 | 15.90558 | 34247 ft | 427 kts | 328° |
| 2026-05-09 01:44 | 54.35330 | 15.85509 | 34249 ft | 428 kts | 328° |
| 2026-05-09 01:45 | 54.40523 | 15.80447 | 34254 ft | 428 kts | 328° |
| 2026-05-09 01:45 | 54.45720 | 15.75366 | 34261 ft | 428 kts | 328° |
| 2026-05-09 01:46 | 54.50908 | 15.70253 | 34276 ft | 428 kts | 328° |
| 2026-05-09 01:46 | 54.56091 | 15.65140 | 34264 ft | 429 kts | 328° |
| 2026-05-09 01:47 | 54.61275 | 15.60011 | 34263 ft | 430 kts | 328° |
| 2026-05-09 01:47 | 54.66472 | 15.54858 | 34263 ft | 430 kts | 328° |
| 2026-05-09 01:48 | 54.71660 | 15.49708 | 34265 ft | 430 kts | 328° |
| 2026-05-09 01:48 | 54.76844 | 15.44533 | 34265 ft | 430 kts | 328° |
| 2026-05-09 01:49 | 54.82021 | 15.39340 | 34269 ft | 430 kts | 328° |
| 2026-05-09 01:49 | 54.87200 | 15.34135 | 34273 ft | 430 kts | 328° |
| 2026-05-09 01:50 | 54.92385 | 15.28913 | 34275 ft | 430 kts | 328° |
| 2026-05-09 01:50 | 54.97596 | 15.23642 | 34275 ft | 431 kts | 328° |
| 2026-05-09 01:51 | 55.02737 | 15.18412 | 34282 ft | 431 kts | 328° |
| 2026-05-09 01:51 | 55.07950 | 15.13098 | 34285 ft | 431 kts | 328° |
| 2026-05-09 01:52 | 55.13113 | 15.07818 | 34290 ft | 431 kts | 328° |
| 2026-05-09 01:52 | 55.18278 | 15.02510 | 34291 ft | 430 kts | 328° |
| 2026-05-09 01:53 | 55.23421 | 14.97205 | 34285 ft | 430 kts | 328° |
| 2026-05-09 01:53 | 55.28587 | 14.91854 | 34287 ft | 430 kts | 328° |
| 2026-05-09 01:54 | 55.33730 | 14.86516 | 34289 ft | 430 kts | 328° |
| 2026-05-09 01:54 | 55.38883 | 14.81166 | 34290 ft | 430 kts | 328° |
| 2026-05-09 01:55 | 55.44016 | 14.75819 | 34302 ft | 429 kts | 328° |
| 2026-05-09 01:55 | 55.49156 | 14.70451 | 34302 ft | 429 kts | 328° |
| 2026-05-09 01:56 | 55.54296 | 14.65073 | 34303 ft | 429 kts | 328° |
| 2026-05-09 01:56 | 55.59385 | 14.59725 | 34303 ft | 428 kts | 328° |
| 2026-05-09 01:57 | 55.64526 | 14.54294 | 34303 ft | 428 kts | 328° |
| 2026-05-09 01:57 | 55.69642 | 14.48873 | 34305 ft | 427 kts | 328° |
| 2026-05-09 01:58 | 55.74730 | 14.43464 | 34305 ft | 427 kts | 328° |
| 2026-05-09 01:58 | 55.79826 | 14.38034 | 34303 ft | 427 kts | 328° |
| 2026-05-09 01:59 | 55.84890 | 14.32627 | 34290 ft | 426 kts | 328° |
| 2026-05-09 01:59 | 55.89972 | 14.27182 | 34287 ft | 427 kts | 328° |
| 2026-05-09 02:00 | 55.95059 | 14.21721 | 34297 ft | 426 kts | 328° |
| 2026-05-09 02:00 | 55.99309 | 14.17142 | 34299 ft | 425 kts | 328° |
| 2026-05-09 02:01 | 56.04369 | 14.11675 | 34306 ft | 425 kts | 328° |
| 2026-05-09 02:01 | 56.09420 | 14.06188 | 34319 ft | 425 kts | 328° |
| 2026-05-09 02:02 | 56.14476 | 14.00677 | 34325 ft | 425 kts | 328° |
| 2026-05-09 02:02 | 56.19550 | 13.95147 | 34322 ft | 426 kts | 328° |
| 2026-05-09 02:03 | 56.24597 | 13.89627 | 34325 ft | 426 kts | 328° |
| 2026-05-09 02:03 | 56.29665 | 13.84067 | 34347 ft | 425 kts | 328° |
| 2026-05-09 02:04 | 56.34707 | 13.78521 | 34359 ft | 424 kts | 328° |
| 2026-05-09 02:04 | 56.39739 | 13.72954 | 34353 ft | 424 kts | 328° |
| 2026-05-09 02:05 | 56.44744 | 13.67392 | 34353 ft | 423 kts | 328° |
| 2026-05-09 02:05 | 56.49771 | 13.61805 | 34351 ft | 423 kts | 328° |
| 2026-05-09 02:06 | 56.54780 | 13.56229 | 34346 ft | 423 kts | 328° |
| 2026-05-09 02:07 | 56.62291 | 13.47818 | 34348 ft | 423 kts | 328° |
| 2026-05-09 02:07 | 56.67289 | 13.42173 | 34368 ft | 422 kts | 328° |
| 2026-05-09 02:08 | 56.72278 | 13.36545 | 34366 ft | 421 kts | 328° |
| 2026-05-09 02:08 | 56.77251 | 13.30931 | 34363 ft | 421 kts | 328° |
| 2026-05-09 02:09 | 56.82226 | 13.25284 | 34358 ft | 420 kts | 328° |
| 2026-05-09 02:09 | 56.87182 | 13.19636 | 34350 ft | 420 kts | 328° |
| 2026-05-09 02:10 | 56.92127 | 13.13985 | 34340 ft | 420 kts | 328° |
| 2026-05-09 02:10 | 56.97084 | 13.08313 | 34341 ft | 420 kts | 327° |
| 2026-05-09 02:11 | 57.02039 | 13.02613 | 34351 ft | 419 kts | 327° |
| 2026-05-09 02:11 | 57.06957 | 12.96939 | 34365 ft | 417 kts | 327° |
| 2026-05-09 02:12 | 57.11871 | 12.91252 | 34364 ft | 416 kts | 327° |
| 2026-05-09 02:12 | 57.16756 | 12.85596 | 34355 ft | 415 kts | 327° |
| 2026-05-09 02:13 | 57.21633 | 12.79911 | 34352 ft | 415 kts | 327° |
| 2026-05-09 02:13 | 57.26506 | 12.74210 | 34348 ft | 414 kts | 327° |
| 2026-05-09 02:14 | 57.31378 | 12.68516 | 34335 ft | 414 kts | 327° |
| 2026-05-09 02:14 | 57.36244 | 12.62801 | 34329 ft | 415 kts | 327° |
| 2026-05-09 02:15 | 57.41105 | 12.57056 | 34354 ft | 413 kts | 327° |
| 2026-05-09 02:15 | 57.45927 | 12.51354 | 34350 ft | 411 kts | 327° |
| 2026-05-09 02:16 | 57.50745 | 12.45622 | 34351 ft | 410 kts | 327° |
| 2026-05-09 02:16 | 57.55543 | 12.39906 | 34349 ft | 409 kts | 327° |
| 2026-05-09 02:17 | 57.60341 | 12.34198 | 34346 ft | 409 kts | 327° |
| 2026-05-09 02:17 | 57.65138 | 12.28476 | 34324 ft | 409 kts | 327° |
| 2026-05-09 02:18 | 57.69922 | 12.22718 | 34294 ft | 409 kts | 327° |
| 2026-05-09 02:18 | 57.74706 | 12.16941 | 34310 ft | 409 kts | 326° |
| 2026-05-09 02:19 | 57.79469 | 12.11177 | 34334 ft | 408 kts | 326° |
| 2026-05-09 02:19 | 57.84222 | 12.05402 | 34336 ft | 406 kts | 326° |
| 2026-05-09 02:20 | 57.88981 | 11.99623 | 34334 ft | 406 kts | 326° |
| 2026-05-09 02:20 | 57.93710 | 11.93837 | 34336 ft | 405 kts | 326° |
| 2026-05-09 02:21 | 57.98442 | 11.88044 | 34322 ft | 406 kts | 326° |
| 2026-05-09 02:21 | 58.03169 | 11.82242 | 34315 ft | 406 kts | 326° |
| 2026-05-09 02:22 | 58.07886 | 11.76427 | 34304 ft | 406 kts | 326° |
| 2026-05-09 02:22 | 58.12604 | 11.70580 | 34304 ft | 406 kts | 326° |
| 2026-05-09 02:23 | 58.17458 | 11.65220 | 34302 ft | 407 kts | 336° |
| 2026-05-09 02:23 | 58.22996 | 11.62669 | 34299 ft | 410 kts | 349° |
| 2026-05-09 02:24 | 58.28613 | 11.60974 | 34301 ft | 410 kts | 348° |
| 2026-05-09 02:24 | 58.34244 | 11.59197 | 34298 ft | 410 kts | 348° |
| 2026-05-09 02:25 | 58.39879 | 11.57433 | 34295 ft | 410 kts | 348° |
| 2026-05-09 02:25 | 58.45503 | 11.55705 | 34294 ft | 410 kts | 348° |
| 2026-05-09 02:26 | 58.51155 | 11.53956 | 34308 ft | 410 kts | 348° |
| 2026-05-09 02:26 | 58.56800 | 11.52184 | 34299 ft | 411 kts | 348° |
| 2026-05-09 02:27 | 58.62443 | 11.50406 | 34297 ft | 412 kts | 348° |
| 2026-05-09 02:27 | 58.68100 | 11.48616 | 34292 ft | 412 kts | 348° |
| 2026-05-09 02:28 | 58.73770 | 11.46830 | 34098 ft | 413 kts | 348° |
| 2026-05-09 02:28 | 58.76609 | 11.45935 | 33820 ft | 414 kts | 348° |
| 2026-05-09 02:28 | 58.79447 | 11.45035 | 33538 ft | 415 kts | 348° |
| 2026-05-09 02:28 | 58.82290 | 11.44127 | 33223 ft | 413 kts | 348° |
| 2026-05-09 02:29 | 58.85123 | 11.43226 | 32687 ft | 410 kts | 348° |
| 2026-05-09 02:29 | 58.87810 | 11.42366 | 32209 ft | 407 kts | 348° |
| 2026-05-09 02:29 | 58.90615 | 11.41472 | 31692 ft | 404 kts | 348° |
| 2026-05-09 02:29 | 58.93389 | 11.40590 | 31189 ft | 401 kts | 348° |
| 2026-05-09 02:30 | 58.96125 | 11.39720 | 30708 ft | 399 kts | 348° |
| 2026-05-09 02:30 | 58.98852 | 11.38849 | 30189 ft | 396 kts | 348° |
| 2026-05-09 02:30 | 59.01561 | 11.37973 | 29681 ft | 393 kts | 348° |
| 2026-05-09 02:30 | 59.04242 | 11.37107 | 29206 ft | 388 kts | 348° |
| 2026-05-09 02:31 | 59.06893 | 11.36255 | 28731 ft | 384 kts | 348° |
| 2026-05-09 02:31 | 59.09516 | 11.35413 | 28253 ft | 381 kts | 348° |
| 2026-05-09 02:31 | 59.12147 | 11.34515 | 27765 ft | 377 kts | 346° |
| 2026-05-09 02:31 | 59.14697 | 11.33460 | 27358 ft | 372 kts | 345° |
| 2026-05-09 02:32 | 59.17231 | 11.32684 | 27031 ft | 368 kts | 354° |
| 2026-05-09 02:32 | 59.19733 | 11.32783 | 26777 ft | 369 kts | 5° |
| 2026-05-09 02:32 | 59.22264 | 11.33915 | 26491 ft | 371 kts | 15° |
| 2026-05-09 02:32 | 59.24731 | 11.35460 | 26019 ft | 371 kts | 15° |
| 2026-05-09 02:33 | 59.27175 | 11.37023 | 25548 ft | 370 kts | 15° |
| 2026-05-09 02:33 | 59.29622 | 11.38596 | 25044 ft | 370 kts | 15° |
| 2026-05-09 02:33 | 59.32068 | 11.40162 | 24564 ft | 369 kts | 15° |
| 2026-05-09 02:33 | 59.34498 | 11.41712 | 24130 ft | 368 kts | 15° |
| 2026-05-09 02:34 | 59.36920 | 11.43251 | 23724 ft | 364 kts | 15° |
| 2026-05-09 02:34 | 59.39266 | 11.44736 | 23285 ft | 362 kts | 15° |
| 2026-05-09 02:34 | 59.41656 | 11.46245 | 22697 ft | 363 kts | 15° |
| 2026-05-09 02:34 | 59.44051 | 11.47757 | 22289 ft | 359 kts | 15° |
| 2026-05-09 02:35 | 59.46441 | 11.49264 | 21866 ft | 356 kts | 15° |
| 2026-05-09 02:35 | 59.48797 | 11.50749 | 21394 ft | 355 kts | 15° |
| 2026-05-09 02:35 | 59.49996 | 11.51502 | 21164 ft | 354 kts | 15° |